This is the latest recevied weather packets stored in our database for station/object KB1PVH-13. If no packets are shown the sender has not sent any weather packets the latest 10 day(s).
| Time | Temp. | Humidity | Pressure | Rain* | Wind** | Luminosity | Snow |
|---|---|---|---|---|---|---|---|
| 1777132217 | 11.11° C | 44% | 934 hPa | 0 mm | - | - | - |
| 1777128639 | 10.56° C | 46% | 934.2 hPa | 0 mm | - | - | - |
| 1777127418 | 10.56° C | 45% | 934.3 hPa | 0 mm | - | - | - |
| 1777126817 | 10° C | 45% | 934.3 hPa | 0 mm | - | - | - |
| 1777126217 | 9.44° C | 46% | 934.3 hPa | 0 mm | - | - | - |
| 1777123817 | 9.44° C | 49% | 934.3 hPa | 0 mm | - | - | - |
| 1777123258 | 8.89° C | 50% | 934.3 hPa | 0 mm | - | - | - |
| 1777114216 | -0.56° C | 90% | 934.2 hPa | 0 mm | - | - | - |
| 1777113617 | -0.56° C | 90% | 934.1 hPa | 0 mm | - | - | - |
| 1777113018 | -0.56° C | 89% | 934 hPa | 0 mm | - | - | - |
| 1777107617 | -0.56° C | 87% | 933.2 hPa | 0 mm | - | - | - |
| 1777105816 | 0° C | 84% | 933.3 hPa | 0 mm | - | - | - |
| 1777102236 | 0.56° C | 83% | 933 hPa | 0 mm | - | - | - |
| 1777101036 | 0.56° C | 82% | 932.9 hPa | 0 mm | - | - | - |
| 1777098617 | 1.11° C | 81% | 932.6 hPa | 0 mm | - | - | - |
| 1777098016 | 1.11° C | 82% | 932.5 hPa | 0 mm | - | - | - |
| 1777097416 | 1.11° C | 82% | 932.4 hPa | 0 mm | - | - | - |
| 1777093216 | 2.22° C | 74% | 932.2 hPa | 0 mm | - | - | - |
| 1777089616 | 3.33° C | 68% | 932.1 hPa | 0 mm | - | - | - |
| 1777089016 | 3.33° C | 68% | 932.1 hPa | 0 mm | - | - | - |
| 1777087258 | 4.44° C | 64% | 931.9 hPa | 0 mm | - | - | - |
| 1777083636 | 6.11° C | 57% | 931.4 hPa | 0 mm | - | - | - |
* Rain latest hour (hover to see other rain measurements)
** Current wind speed in m/s (hover to see current wind gust speed)